メインページ
METAR-TAF:

METAR-TAF

空港 :

アトランタ, ジョージア州, アメリカ合衆国

ハーツフィールド・ジャクソン・アトランタ国際空港

緯度: 33-38-25N, 経度: 084-25-37W, 海抜: 313m

現時点の気象観測

当レポートは18分前の10:52(UTC)に作成
無風
気温 21°C
湿度 88%
気圧 1017 hPa
視程: 16.1km
高度20000ftの雲はほとんどない

METAR: KATL 201052Z 00000KT 10SM FEW200 21/19 A3003 RMK AO2 SLP158 T02110194

時間: 07:10 (11:10 UTC)

予報

当レポートは1時間20分前の09:50(UTC)に作成
予報は20日の 10時(UTC)から 21日の 12時(UTC)まで有効
北西の風 5kt
視程: 10km
高度20000ftの雲はほとんどない
20日の 1600時(UTC)から
西/北西の風 5kt
視程: 10km
高度25000ftの雲はほとんどない
21日の 0200時(UTC)から
変向風 4kt
視程: 10km
高度25000ftの雲はほとんどない

TAF: KATL 200950Z 2010/2112 32005KT P6SM FEW200 FM201600 29005KT P6SM FEW250 FM210200 VRB04KT P6SM FEW250

4,000以上の空港の気象観測と天気予報(METAR報とTAF報)

利用可能な観測所は地図上に黄色い丸と赤い丸で示す。

丸の上にカーソルを重ねると観測所名を参照できる。

次にクリックすると気象観測と天気予報を参照できる。

マップの切り替え:黒色「×」印の緑ボタンをクリックして拡大、「-」印の緑ボタンをクリックして縮小、緑色の三角印をクリックして隣りの地図に切り替え


METAR-TAF: